Time;durP1;ratioP1;P1;durP2;ratioP2;P2;SDS_P1;SDS_P2;PMS_P1;PMS_P2;Temp;Humidity;BMP_temperature;BMP_pressure;BME280_temperature;BME280_humidity;BME280_pressure;Samples;Min_cycle;Max_cycle;Signal;HPM_P1;HPM_P2
2022/12/29 00:02:13;;;;;;;18.30;17.10;;;;;;;;;;5104250;28;20419;-82
2022/12/29 00:04:40;;;;;;;17.10;16.30;;;;;;;;;;5102785;28;20834;-82
2022/12/29 00:07:08;;;;;;;18.47;17.47;;;;;;;;;;5103155;28;20474;-83
2022/12/29 00:09:36;;;;;;;18.10;17.20;;;;;;;;;;5103499;28;20424;-82
2022/12/29 00:12:03;;;;;;;17.53;16.63;;;;;;;;;;5103399;28;20470;-82
2022/12/29 00:17:16;;;;;;;17.43;16.53;;;;;;;;;;5102669;28;20480;-82
2022/12/29 00:36:18;;;;;;;17.77;16.77;;;;;;;;;;5104569;28;20429;-82
2022/12/29 00:44:22;;;;;;;17.43;16.50;;;;;;;;;;5028126;28;21001;-83
2022/12/29 00:46:49;;;;;;;17.17;16.37;;;;;;;;;;5103359;28;20447;-82
2022/12/29 00:49:31;;;;;;;17.40;16.50;;;;;;;;;;5103349;28;20470;-82
2022/12/29 00:51:59;;;;;;;17.37;16.47;;;;;;;;;;5103342;28;20468;-82
2022/12/29 00:54:27;;;;;;;16.80;16.00;;;;;;;;;;5103385;28;20449;-83
2022/12/29 00:56:55;;;;;;;16.97;16.17;;;;;;;;;;5103557;28;20430;-83
2022/12/29 00:59:23;;;;;;;17.70;16.80;;;;;;;;;;5103603;28;20452;-82
2022/12/29 01:01:51;;;;;;;17.43;16.60;;;;;;;;;;5104000;28;20452;-82
2022/12/29 01:04:18;;;;;;;16.70;15.90;;;;;;;;;;5103216;28;20458;-82
2022/12/29 01:06:45;;;;;;;16.97;16.17;;;;;;;;;;5103422;28;20465;-82
2022/12/29 01:11:59;;;;;;;17.40;16.60;;;;;;;;;;5103883;28;20800;-83
2022/12/29 01:14:26;;;;;;;17.10;16.30;;;;;;;;;;5103042;28;20449;-82
2022/12/29 01:16:53;;;;;;;16.30;15.60;;;;;;;;;;5103093;28;21139;-82
2022/12/29 01:19:20;;;;;;;16.90;16.10;;;;;;;;;;5103571;28;20455;-83
2022/12/29 01:21:48;;;;;;;16.80;16.10;;;;;;;;;;5103773;28;20430;-82
2022/12/29 01:24:15;;;;;;;16.63;15.83;;;;;;;;;;5103239;28;20839;-82
2022/12/29 01:26:42;;;;;;;17.03;16.13;;;;;;;;;;5102949;28;20996;-82
2022/12/29 01:29:10;;;;;;;16.97;16.23;;;;;;;;;;5103031;28;20457;-82
2022/12/29 01:31:38;;;;;;;16.67;15.87;;;;;;;;;;5102718;28;20482;-82
2022/12/29 01:34:05;;;;;;;16.60;15.80;;;;;;;;;;5102999;28;20466;-82
2022/12/29 01:36:32;;;;;;;17.80;16.90;;;;;;;;;;5103394;28;20465;-82
2022/12/29 01:38:59;;;;;;;18.10;17.30;;;;;;;;;;5103378;28;20454;-82
2022/12/29 01:41:26;;;;;;;17.40;16.40;;;;;;;;;;5102811;28;20459;-82
2022/12/29 01:43:54;;;;;;;17.00;16.30;;;;;;;;;;5102054;28;20878;-82
2022/12/29 01:46:24;;;;;;;17.67;16.80;;;;;;;;;;5103067;28;20528;-82
2022/12/29 01:48:54;;;;;;;17.97;17.17;;;;;;;;;;5102621;28;20481;-82
2022/12/29 01:51:22;;;;;;;17.30;16.50;;;;;;;;;;5103527;28;20419;-82
2022/12/29 01:53:49;;;;;;;16.97;16.27;;;;;;;;;;5102180;28;20454;-82
2022/12/29 01:56:18;;;;;;;16.17;15.50;;;;;;;;;;5103051;28;20464;-82
2022/12/29 01:58:48;;;;;;;15.83;15.23;;;;;;;;;;5103107;28;20502;-83
2022/12/29 02:01:15;;;;;;;16.20;15.50;;;;;;;;;;5103288;28;20473;-82
2022/12/29 02:03:44;;;;;;;16.57;15.87;;;;;;;;;;5102363;28;20418;-82
2022/12/29 02:06:13;;;;;;;17.20;16.50;;;;;;;;;;5102786;28;20493;-82
2022/12/29 02:08:41;;;;;;;17.97;17.17;;;;;;;;;;5102116;28;20997;-82
2022/12/29 02:11:08;;;;;;;18.63;17.83;;;;;;;;;;5103348;28;20444;-82
2022/12/29 02:13:35;;;;;;;18.53;17.73;;;;;;;;;;5101978;28;20470;-83
2022/12/29 02:16:07;;;;;;;19.47;18.57;;;;;;;;;;5102476;28;20461;-82
2022/12/29 02:18:37;;;;;;;19.20;18.40;;;;;;;;;;5101818;28;20749;-82
2022/12/29 02:21:19;;;;;;;19.90;18.90;;;;;;;;;;5102395;28;20516;-82
2022/12/29 02:23:57;;;;;;;20.37;19.47;;;;;;;;;;5101573;28;20419;-82
2022/12/29 02:26:31;;;;;;;21.03;20.03;;;;;;;;;;5102105;28;20489;-82
2022/12/29 02:29:15;;;;;;;20.23;19.33;;;;;;;;;;5103436;28;20456;-82
2022/12/29 02:31:47;;;;;;;20.43;19.53;;;;;;;;;;5105849;28;20399;-82
2022/12/29 02:34:22;;;;;;;19.70;18.80;;;;;;;;;;5104427;28;20469;-82
2022/12/29 02:36:54;;;;;;;20.00;19.10;;;;;;;;;;5105516;28;20430;-82
2022/12/29 02:39:25;;;;;;;19.97;19.07;;;;;;;;;;5106028;28;20414;-82
2022/12/29 02:41:57;;;;;;;19.50;18.70;;;;;;;;;;5105645;28;20445;-82
2022/12/29 02:44:28;;;;;;;19.30;18.40;;;;;;;;;;5104389;28;20476;-82
2022/12/29 02:47:00;;;;;;;19.57;18.67;;;;;;;;;;5106094;28;20469;-82
2022/12/29 02:49:33;;;;;;;19.50;18.70;;;;;;;;;;5105448;28;20411;-83
2022/12/29 02:52:02;;;;;;;18.93;18.13;;;;;;;;;;5105128;28;20429;-82
2022/12/29 02:54:41;;;;;;;18.47;17.67;;;;;;;;;;5103763;28;20498;-82
2022/12/29 02:57:10;;;;;;;18.53;17.73;;;;;;;;;;5105393;28;20449;-82
2022/12/29 02:59:37;;;;;;;18.27;17.47;;;;;;;;;;5104555;28;20408;-83
2022/12/29 03:02:17;;;;;;;18.33;17.23;;;;;;;;;;5105509;28;20450;-82
2022/12/29 03:04:49;;;;;;;17.63;16.83;;;;;;;;;;5104954;28;20411;-82
2022/12/29 03:07:21;;;;;;;17.20;16.50;;;;;;;;;;5105224;28;20930;-82
2022/12/29 03:09:52;;;;;;;17.07;16.37;;;;;;;;;;5105198;28;20419;-82
2022/12/29 03:17:58;;;;;;;16.80;16.10;;;;;;;;;;5045564;28;20899;-82
2022/12/29 03:20:28;;;;;;;16.83;16.07;;;;;;;;;;5104962;28;20411;-82
2022/12/29 03:22:56;;;;;;;16.80;16.10;;;;;;;;;;5104241;28;20412;-82
2022/12/29 03:25:25;;;;;;;16.63;15.93;;;;;;;;;;5104224;28;20537;-84
2022/12/29 03:27:54;;;;;;;17.13;16.43;;;;;;;;;;5104680;28;20813;-82
2022/12/29 03:30:21;;;;;;;17.40;16.60;;;;;;;;;;5104141;28;20445;-82
2022/12/29 03:32:50;;;;;;;16.70;16.00;;;;;;;;;;5104575;28;20423;-82
2022/12/29 03:35:20;;;;;;;16.83;16.13;;;;;;;;;;5103626;28;20415;-82
2022/12/29 03:37:51;;;;;;;16.70;16.00;;;;;;;;;;5104583;28;20440;-82
2022/12/29 03:40:19;;;;;;;16.80;16.10;;;;;;;;;;5104536;28;20437;-82
2022/12/29 03:42:46;;;;;;;16.70;16.00;;;;;;;;;;5104864;28;20471;-82
2022/12/29 03:45:13;;;;;;;16.70;16.00;;;;;;;;;;5103119;28;20512;-82
2022/12/29 03:47:40;;;;;;;16.47;15.77;;;;;;;;;;5103829;28;20428;-82
2022/12/29 03:50:09;;;;;;;17.47;16.60;;;;;;;;;;5105287;28;20433;-82
2022/12/29 03:52:37;;;;;;;16.60;15.90;;;;;;;;;;5103506;28;20431;-83
2022/12/29 03:55:04;;;;;;;17.13;16.33;;;;;;;;;;5103790;28;20469;-82
2022/12/29 03:57:31;;;;;;;16.80;16.10;;;;;;;;;;5103691;28;20447;-82
2022/12/29 03:59:58;;;;;;;17.10;16.27;;;;;;;;;;5103955;28;20448;-82
2022/12/29 04:02:25;;;;;;;16.60;15.80;;;;;;;;;;5103778;28;20426;-82
2022/12/29 04:04:52;;;;;;;17.03;16.17;;;;;;;;;;5103875;28;20423;-82
2022/12/29 04:07:19;;;;;;;16.77;15.97;;;;;;;;;;5104553;28;20447;-82
2022/12/29 04:09:47;;;;;;;16.77;15.97;;;;;;;;;;5104103;28;20513;-84
2022/12/29 04:12:14;;;;;;;16.53;15.73;;;;;;;;;;5103963;28;20420;-82
2022/12/29 04:14:41;;;;;;;17.00;16.20;;;;;;;;;;5103209;28;20467;-82
2022/12/29 04:17:08;;;;;;;16.90;16.00;;;;;;;;;;5104238;28;20461;-82
2022/12/29 04:19:35;;;;;;;16.63;15.83;;;;;;;;;;5103952;28;20480;-82
2022/12/29 04:22:02;;;;;;;16.97;16.17;;;;;;;;;;5102968;28;20439;-81
2022/12/29 04:24:30;;;;;;;16.97;16.17;;;;;;;;;;5103268;28;20496;-82
2022/12/29 04:26:58;;;;;;;17.30;16.50;;;;;;;;;;5103276;28;20469;-82
2022/12/29 04:29:25;;;;;;;17.27;16.47;;;;;;;;;;5103471;28;20449;-82
2022/12/29 04:31:52;;;;;;;16.97;16.17;;;;;;;;;;5103048;28;20424;-82
2022/12/29 04:34:19;;;;;;;16.67;15.87;;;;;;;;;;5102555;28;20416;-82
2022/12/29 04:36:46;;;;;;;17.30;16.50;;;;;;;;;;5103081;28;20461;-82
2022/12/29 04:39:13;;;;;;;16.20;15.50;;;;;;;;;;5103500;28;20441;-82
2022/12/29 04:41:40;;;;;;;17.10;16.27;;;;;;;;;;5103577;28;20440;-82
2022/12/29 04:44:08;;;;;;;17.23;16.03;;;;;;;;;;5102794;28;20449;-82
2022/12/29 04:46:35;;;;;;;17.10;16.30;;;;;;;;;;5104105;28;20504;-82
2022/12/29 04:49:08;;;;;;;16.70;15.90;;;;;;;;;;5103709;28;20423;-82
2022/12/29 04:51:35;;;;;;;16.67;15.87;;;;;;;;;;5103959;28;20429;-82
2022/12/29 04:54:02;;;;;;;16.73;15.93;;;;;;;;;;5103127;28;20449;-82
2022/12/29 04:56:29;;;;;;;17.23;16.43;;;;;;;;;;5102549;28;20525;-82
2022/12/29 04:58:56;;;;;;;17.43;16.63;;;;;;;;;;5103430;28;20419;-82
2022/12/29 05:01:24;;;;;;;17.03;16.13;;;;;;;;;;5103399;28;20412;-82
2022/12/29 05:03:52;;;;;;;17.00;16.20;;;;;;;;;;5102851;28;20448;-82
2022/12/29 05:06:19;;;;;;;16.13;15.40;;;;;;;;;;5102665;28;20455;-82
2022/12/29 05:08:46;;;;;;;17.67;16.63;;;;;;;;;;5102967;28;20472;-82
2022/12/29 05:11:13;;;;;;;16.37;15.67;;;;;;;;;;5102786;28;20448;-82
2022/12/29 05:13:40;;;;;;;16.67;15.87;;;;;;;;;;5102288;28;20453;-82
2022/12/29 05:16:07;;;;;;;16.07;15.37;;;;;;;;;;5102923;28;20521;-82
2022/12/29 05:18:35;;;;;;;16.60;15.80;;;;;;;;;;5103740;28;20807;-82
2022/12/29 05:21:02;;;;;;;16.00;15.30;;;;;;;;;;5103009;28;20434;-82
2022/12/29 05:23:29;;;;;;;16.20;15.50;;;;;;;;;;5102599;28;20455;-82
2022/12/29 05:25:56;;;;;;;16.40;15.60;;;;;;;;;;5102908;28;20500;-82
2022/12/29 05:28:23;;;;;;;16.27;15.57;;;;;;;;;;5102848;28;20434;-82
2022/12/29 05:30:50;;;;;;;16.13;15.43;;;;;;;;;;5103353;28;20482;-82
2022/12/29 05:33:18;;;;;;;16.50;15.80;;;;;;;;;;5101849;28;20919;-82
2022/12/29 05:35:46;;;;;;;17.50;16.40;;;;;;;;;;5103368;28;20443;-82
2022/12/29 05:38:13;;;;;;;17.33;16.13;;;;;;;;;;5102450;28;20482;-83
2022/12/29 05:40:40;;;;;;;17.13;16.33;;;;;;;;;;5101773;28;21012;-82
2022/12/29 05:43:07;;;;;;;17.53;16.53;;;;;;;;;;5101259;28;20437;-83
2022/12/29 05:45:34;;;;;;;16.83;16.03;;;;;;;;;;5100901;28;20423;-81
2022/12/29 05:48:01;;;;;;;16.67;15.87;;;;;;;;;;5101511;28;20415;-83
2022/12/29 05:50:28;;;;;;;16.93;16.13;;;;;;;;;;5101737;28;20464;-81
2022/12/29 05:52:56;;;;;;;17.00;16.20;;;;;;;;;;5100839;28;20414;-83
2022/12/29 05:55:23;;;;;;;16.57;15.77;;;;;;;;;;5100921;28;20423;-82
2022/12/29 05:57:50;;;;;;;16.80;16.00;;;;;;;;;;5101720;28;20442;-81
2022/12/29 06:00:17;;;;;;;16.93;16.03;;;;;;;;;;5101652;28;20408;-81
2022/12/29 06:02:44;;;;;;;16.77;15.97;;;;;;;;;;5100012;28;20479;-82
2022/12/29 06:05:11;;;;;;;16.60;15.80;;;;;;;;;;5103624;28;20810;-82
2022/12/29 06:07:38;;;;;;;16.93;16.13;;;;;;;;;;5103668;28;20459;-82
2022/12/29 06:10:07;;;;;;;16.77;15.97;;;;;;;;;;5104558;28;20441;-84
2022/12/29 06:12:34;;;;;;;16.70;15.90;;;;;;;;;;5103886;28;20441;-82
2022/12/29 06:15:01;;;;;;;17.30;16.37;;;;;;;;;;5104073;28;20452;-81
2022/12/29 06:17:28;;;;;;;17.37;16.57;;;;;;;;;;5104081;28;20506;-82
2022/12/29 06:19:55;;;;;;;17.67;16.87;;;;;;;;;;5105041;28;20990;-81
2022/12/29 06:22:22;;;;;;;17.90;17.00;;;;;;;;;;5104523;28;20534;-82
2022/12/29 06:24:49;;;;;;;17.87;16.97;;;;;;;;;;5103841;28;20459;-82
2022/12/29 06:27:18;;;;;;;17.40;16.60;;;;;;;;;;5105083;28;20848;-84
2022/12/29 06:29:45;;;;;;;17.20;16.40;;;;;;;;;;5102049;28;20468;-83
2022/12/29 06:32:12;;;;;;;17.63;16.83;;;;;;;;;;5103093;28;20502;-84
2022/12/29 06:34:39;;;;;;;16.87;16.07;;;;;;;;;;5103426;28;20872;-84
2022/12/29 06:37:06;;;;;;;17.13;16.30;;;;;;;;;;5103909;28;20517;-83
2022/12/29 06:39:33;;;;;;;17.53;16.63;;;;;;;;;;5104178;28;20415;-84
2022/12/29 06:42:00;;;;;;;17.40;16.60;;;;;;;;;;5104184;28;20981;-84
2022/12/29 06:44:29;;;;;;;17.37;16.57;;;;;;;;;;5102710;28;20502;-83
2022/12/29 06:46:57;;;;;;;17.40;16.50;;;;;;;;;;5103767;28;20491;-83
2022/12/29 06:49:24;;;;;;;21.70;20.70;;;;;;;;;;5104020;28;20872;-83
2022/12/29 06:51:51;;;;;;;19.97;18.97;;;;;;;;;;5102795;28;21005;-84
2022/12/29 06:54:18;;;;;;;20.43;19.13;;;;;;;;;;5103147;28;20521;-84
2022/12/29 06:56:45;;;;;;;19.83;18.83;;;;;;;;;;5103303;28;20439;-84
2022/12/29 06:59:12;;;;;;;21.20;20.00;;;;;;;;;;5103167;28;20484;-83
2022/12/29 07:01:41;;;;;;;20.43;19.43;;;;;;;;;;5102168;28;20444;-83
2022/12/29 07:04:08;;;;;;;20.20;19.20;;;;;;;;;;5101986;28;20490;-84
2022/12/29 07:06:35;;;;;;;19.33;18.20;;;;;;;;;;5102904;28;20528;-84
2022/12/29 07:09:02;;;;;;;18.27;17.37;;;;;;;;;;5102110;28;20467;-83
2022/12/29 07:11:29;;;;;;;18.07;17.20;;;;;;;;;;5102718;28;20457;-79
2022/12/29 07:13:56;;;;;;;17.93;16.93;;;;;;;;;;5100232;28;20472;-90
2022/12/29 07:16:23;;;;;;;17.93;17.03;;;;;;;;;;5095223;28;20525;-89
2022/12/29 07:18:52;;;;;;;17.90;16.87;;;;;;;;;;5101952;28;20427;-83
2022/12/29 07:21:19;;;;;;;17.47;16.57;;;;;;;;;;5104171;28;20439;-85
2022/12/29 07:23:46;;;;;;;17.20;16.30;;;;;;;;;;5103645;28;20448;-84
2022/12/29 07:26:14;;;;;;;18.00;16.90;;;;;;;;;;5102447;28;20463;-82
2022/12/29 07:28:41;;;;;;;20.33;18.60;;;;;;;;;;5100604;28;20451;-83
2022/12/29 07:31:14;;;;;;;19.57;18.57;;;;;;;;;;5103783;28;20957;-86
2022/12/29 07:33:41;;;;;;;21.03;19.93;;;;;;;;;;5104159;28;20464;-83
2022/12/29 07:36:10;;;;;;;22.30;21.10;;;;;;;;;;5106376;28;20431;-83
2022/12/29 07:38:37;;;;;;;20.40;19.40;;;;;;;;;;5105566;28;20424;-82
2022/12/29 07:41:04;;;;;;;21.80;20.70;;;;;;;;;;5099119;28;20448;-80
2022/12/29 07:43:31;;;;;;;25.50;23.90;;;;;;;;;;5097950;28;20464;-80
2022/12/29 07:45:57;;;;;;;21.97;20.53;;;;;;;;;;5099493;28;20439;-80
2022/12/29 07:48:24;;;;;;;21.30;20.27;;;;;;;;;;5098992;28;20452;-80
2022/12/29 07:50:52;;;;;;;22.67;21.47;;;;;;;;;;5099528;28;20456;-81
2022/12/29 07:53:20;;;;;;;22.00;20.90;;;;;;;;;;5098596;28;20533;-80
2022/12/29 07:55:47;;;;;;;29.87;27.17;;;;;;;;;;5098950;28;20465;-80
2022/12/29 07:58:14;;;;;;;52.77;43.80;;;;;;;;;;5104001;28;20444;-84
2022/12/29 08:00:41;;;;;;;25.00;23.27;;;;;;;;;;5105608;28;20427;-85
2022/12/29 08:03:08;;;;;;;30.73;28.13;;;;;;;;;;5103347;28;20411;-80
2022/12/29 08:05:35;;;;;;;25.03;23.33;;;;;;;;;;5098625;28;20511;-80
2022/12/29 08:08:02;;;;;;;27.63;25.80;;;;;;;;;;5098790;28;20856;-80
2022/12/29 08:10:31;;;;;;;23.93;22.53;;;;;;;;;;5098262;28;20456;-79
2022/12/29 08:12:59;;;;;;;21.80;20.70;;;;;;;;;;5098189;28;20843;-81
2022/12/29 08:15:26;;;;;;;21.53;20.40;;;;;;;;;;5098119;28;20423;-79
2022/12/29 08:17:53;;;;;;;21.97;20.70;;;;;;;;;;5098053;28;20493;-80
2022/12/29 08:20:20;;;;;;;21.80;20.60;;;;;;;;;;5097611;28;20423;-80
2022/12/29 08:22:46;;;;;;;24.13;22.40;;;;;;;;;;5098684;28;20977;-82
2022/12/29 08:25:13;;;;;;;24.30;22.67;;;;;;;;;;5098449;28;20869;-81
2022/12/29 08:27:42;;;;;;;20.43;19.33;;;;;;;;;;5098705;28;20480;-81
2022/12/29 08:30:10;;;;;;;21.90;20.20;;;;;;;;;;5099279;28;20432;-81
2022/12/29 08:32:37;;;;;;;21.50;20.23;;;;;;;;;;5098174;28;20981;-79
2022/12/29 08:35:04;;;;;;;21.73;20.43;;;;;;;;;;5097738;28;20411;-81
2022/12/29 08:37:31;;;;;;;21.10;20.00;;;;;;;;;;5099112;28;20957;-81
2022/12/29 08:39:58;;;;;;;20.00;18.87;;;;;;;;;;5098967;28;20927;-81
2022/12/29 08:42:30;;;;;;;19.90;18.80;;;;;;;;;;5098742;28;20484;-81
2022/12/29 08:44:58;;;;;;;19.60;18.60;;;;;;;;;;5098695;28;20433;-82
2022/12/29 08:47:25;;;;;;;20.23;19.23;;;;;;;;;;5098862;28;20463;-80
2022/12/29 08:49:52;;;;;;;20.20;19.10;;;;;;;;;;5099177;28;20437;-82
2022/12/29 08:52:20;;;;;;;20.23;19.23;;;;;;;;;;5099376;28;20444;-82
2022/12/29 08:54:47;;;;;;;20.23;19.23;;;;;;;;;;5099891;28;20824;-81
2022/12/29 08:57:14;;;;;;;21.43;20.33;;;;;;;;;;5099491;28;20443;-82
2022/12/29 08:59:40;;;;;;;22.07;20.60;;;;;;;;;;5100264;28;20494;-82
2022/12/29 09:02:11;;;;;;;24.80;23.27;;;;;;;;;;5101565;28;20527;-82
2022/12/29 09:04:38;;;;;;;25.97;24.47;;;;;;;;;;5100590;28;20822;-83
2022/12/29 09:07:06;;;;;;;25.80;24.50;;;;;;;;;;5100924;28;20516;-88
2022/12/29 09:09:33;;;;;;;23.33;22.13;;;;;;;;;;5102110;28;20459;-89
2022/12/29 09:12:00;;;;;;;25.87;24.17;;;;;;;;;;5104135;28;20404;-86
2022/12/29 09:14:27;;;;;;;21.70;20.60;;;;;;;;;;5100706;28;20481;-85
2022/12/29 09:19:40;;;;;;;22.63;21.43;;;;;;;;;;5099059;28;20449;-79
2022/12/29 09:22:07;;;;;;;22.40;21.20;;;;;;;;;;5099574;28;20435;-82
2022/12/29 09:24:34;;;;;;;23.30;21.70;;;;;;;;;;5098359;28;20432;-79
2022/12/29 09:27:01;;;;;;;21.70;20.60;;;;;;;;;;5097132;28;20507;-79
2022/12/29 09:29:28;;;;;;;23.23;21.87;;;;;;;;;;5098287;28;20418;-79
2022/12/29 09:31:55;;;;;;;21.90;20.50;;;;;;;;;;5098380;28;20476;-79
2022/12/29 09:34:22;;;;;;;21.87;19.93;;;;;;;;;;5096881;28;20455;-78
2022/12/29 09:36:50;;;;;;;21.43;20.20;;;;;;;;;;5097603;28;21006;-78
2022/12/29 09:39:17;;;;;;;20.67;19.30;;;;;;;;;;5101329;28;20461;-80
2022/12/29 09:41:46;;;;;;;22.00;20.50;;;;;;;;;;5101453;28;20460;-78
2022/12/29 09:44:17;;;;;;;21.30;20.00;;;;;;;;;;5100774;28;20431;-79
2022/12/29 09:46:45;;;;;;;20.90;19.80;;;;;;;;;;5101497;28;20847;-78
2022/12/29 09:49:20;;;;;;;21.23;20.13;;;;;;;;;;5101324;28;20434;-79
2022/12/29 09:51:49;;;;;;;21.93;20.23;;;;;;;;;;5101050;28;20391;-78
2022/12/29 09:54:24;;;;;;;20.43;19.17;;;;;;;;;;5101316;28;20456;-78
2022/12/29 09:56:53;;;;;;;21.00;19.70;;;;;;;;;;5101720;28;20446;-82
2022/12/29 09:59:21;;;;;;;20.47;19.27;;;;;;;;;;5102789;28;20815;-82
2022/12/29 10:01:53;;;;;;;20.50;19.20;;;;;;;;;;5102257;28;20493;-81
2022/12/29 10:04:20;;;;;;;21.23;19.93;;;;;;;;;;5102057;28;20456;-82
2022/12/29 10:06:53;;;;;;;20.23;18.83;;;;;;;;;;5102071;28;20496;-81
2022/12/29 10:09:23;;;;;;;19.53;18.40;;;;;;;;;;5102163;28;20444;-82
2022/12/29 10:12:00;;;;;;;20.33;18.93;;;;;;;;;;5102262;28;20423;-82
2022/12/29 10:14:34;;;;;;;18.90;17.80;;;;;;;;;;5101803;28;20508;-81
2022/12/29 10:17:05;;;;;;;47.53;32.67;;;;;;;;;;5101861;28;20442;-82
2022/12/29 10:19:46;;;;;;;19.50;18.00;;;;;;;;;;5102569;28;20486;-81
2022/12/29 10:22:19;;;;;;;20.33;18.93;;;;;;;;;;5101345;28;20485;-82
2022/12/29 10:24:47;;;;;;;19.40;18.23;;;;;;;;;;5100440;28;20452;-82
2022/12/29 10:27:17;;;;;;;19.77;18.60;;;;;;;;;;5101248;28;20457;-81
2022/12/29 10:29:49;;;;;;;19.93;18.67;;;;;;;;;;5100877;28;20434;-80
2022/12/29 10:32:22;;;;;;;18.57;17.57;;;;;;;;;;5100150;28;20909;-81
2022/12/29 10:34:52;;;;;;;18.47;17.57;;;;;;;;;;5099723;28;20426;-80
2022/12/29 10:37:24;;;;;;;20.40;18.90;;;;;;;;;;5100677;28;20844;-80
2022/12/29 10:39:52;;;;;;;20.90;19.10;;;;;;;;;;5100589;28;20521;-80
2022/12/29 10:42:26;;;;;;;18.30;17.40;;;;;;;;;;5100352;28;20437;-81
2022/12/29 10:44:53;;;;;;;18.80;17.80;;;;;;;;;;5100234;28;20411;-80
2022/12/29 10:47:22;;;;;;;19.17;18.07;;;;;;;;;;5099598;28;20853;-80
2022/12/29 10:49:49;;;;;;;20.27;19.07;;;;;;;;;;5098721;28;20431;-79
2022/12/29 10:52:18;;;;;;;19.67;18.37;;;;;;;;;;5099465;28;20526;-79
2022/12/29 10:54:47;;;;;;;20.10;19.10;;;;;;;;;;5098907;28;20494;-79
2022/12/29 10:57:18;;;;;;;21.33;20.23;;;;;;;;;;5099342;28;20850;-80
2022/12/29 10:59:46;;;;;;;21.13;19.77;;;;;;;;;;5100731;28;20438;-79
2022/12/29 11:02:20;;;;;;;19.83;18.83;;;;;;;;;;5100152;28;20442;-80
2022/12/29 11:04:50;;;;;;;20.03;18.93;;;;;;;;;;5100387;28;20423;-80
2022/12/29 11:07:17;;;;;;;20.00;18.90;;;;;;;;;;5099819;28;20488;-79
2022/12/29 11:09:45;;;;;;;20.47;19.10;;;;;;;;;;5100010;28;20435;-80
2022/12/29 11:12:20;;;;;;;21.07;19.67;;;;;;;;;;5099765;28;20852;-80
2022/12/29 11:14:48;;;;;;;20.67;19.43;;;;;;;;;;5099338;28;20430;-80
2022/12/29 11:17:17;;;;;;;19.63;18.43;;;;;;;;;;5099564;28;20439;-79
2022/12/29 11:19:44;;;;;;;19.80;18.70;;;;;;;;;;5099145;28;20463;-79
2022/12/29 11:22:15;;;;;;;20.60;19.10;;;;;;;;;;5099311;28;20484;-80
2022/12/29 11:24:45;;;;;;;20.50;19.40;;;;;;;;;;5098858;28;20459;-79
2022/12/29 11:27:16;;;;;;;20.80;19.40;;;;;;;;;;5099228;28;20465;-79
2022/12/29 11:29:43;;;;;;;22.93;21.40;;;;;;;;;;5099094;28;20461;-80
2022/12/29 11:32:14;;;;;;;27.33;25.00;;;;;;;;;;5099402;28;20422;-79
2022/12/29 11:34:41;;;;;;;19.63;18.43;;;;;;;;;;5098642;28;20430;-80
2022/12/29 11:37:11;;;;;;;19.50;18.30;;;;;;;;;;5099063;28;20844;-79
2022/12/29 11:39:40;;;;;;;21.20;19.80;;;;;;;;;;5098663;28;20407;-79
2022/12/29 11:42:11;;;;;;;19.77;18.43;;;;;;;;;;5099022;28;20423;-80
2022/12/29 11:44:40;;;;;;;19.20;18.10;;;;;;;;;;5099007;28;20418;-79
2022/12/29 11:47:09;;;;;;;19.97;18.77;;;;;;;;;;5098642;28;20506;-78
2022/12/29 11:49:37;;;;;;;20.03;18.70;;;;;;;;;;5099357;28;20470;-80
2022/12/29 11:52:05;;;;;;;19.83;18.63;;;;;;;;;;5098875;28;20477;-81
2022/12/29 11:54:34;;;;;;;20.37;19.20;;;;;;;;;;5097811;28;20976;-80
2022/12/29 11:57:11;;;;;;;20.40;19.30;;;;;;;;;;5099204;28;20442;-79
2022/12/29 11:59:41;;;;;;;19.60;18.60;;;;;;;;;;5099081;28;20837;-80
2022/12/29 12:02:24;;;;;;;19.77;18.67;;;;;;;;;;5097277;28;20440;-81
2022/12/29 12:04:55;;;;;;;19.73;18.73;;;;;;;;;;5098090;28;20423;-81
2022/12/29 12:07:24;;;;;;;21.03;19.53;;;;;;;;;;5098283;28;20523;-80
2022/12/29 12:09:54;;;;;;;20.33;19.13;;;;;;;;;;5099142;28;20431;-81
2022/12/29 12:12:24;;;;;;;20.77;19.27;;;;;;;;;;5098594;28;20427;-78
2022/12/29 12:14:56;;;;;;;20.43;19.20;;;;;;;;;;5097439;28;20457;-79
2022/12/29 12:17:25;;;;;;;20.37;19.17;;;;;;;;;;5098075;28;20472;-79
2022/12/29 12:19:58;;;;;;;20.50;19.20;;;;;;;;;;5097803;28;20952;-78
2022/12/29 12:22:29;;;;;;;20.40;19.20;;;;;;;;;;5097503;28;20427;-78
2022/12/29 12:24:59;;;;;;;21.60;19.80;;;;;;;;;;5096946;28;20462;-80
2022/12/29 12:27:29;;;;;;;20.53;19.27;;;;;;;;;;5096902;28;20434;-80
2022/12/29 12:30:01;;;;;;;21.20;19.70;;;;;;;;;;5097562;28;20432;-79
2022/12/29 12:32:31;;;;;;;20.20;18.70;;;;;;;;;;5096741;28;20407;-80
2022/12/29 12:34:59;;;;;;;19.60;18.40;;;;;;;;;;5096278;28;20829;-79
2022/12/29 12:37:35;;;;;;;20.23;19.03;;;;;;;;;;5097513;28;20447;-79
2022/12/29 12:40:09;;;;;;;20.43;19.03;;;;;;;;;;5097736;28;20403;-79
2022/12/29 12:42:41;;;;;;;22.23;20.53;;;;;;;;;;5096748;28;20433;-80
2022/12/29 12:45:26;;;;;;;21.60;19.90;;;;;;;;;;5096901;28;20878;-79
2022/12/29 12:47:59;;;;;;;22.63;21.43;;;;;;;;;;5097355;28;20439;-80
2022/12/29 12:50:33;;;;;;;24.33;22.83;;;;;;;;;;5097291;28;20774;-79
2022/12/29 12:53:09;;;;;;;21.90;20.50;;;;;;;;;;5097050;28;20407;-79
2022/12/29 12:55:44;;;;;;;20.83;19.63;;;;;;;;;;5096975;28;20949;-79
2022/12/29 12:58:15;;;;;;;21.00;19.80;;;;;;;;;;5097157;28;20425;-80
2022/12/29 13:00:46;;;;;;;21.80;20.53;;;;;;;;;;5096038;28;20431;-80
2022/12/29 13:03:15;;;;;;;21.10;20.00;;;;;;;;;;5096821;28;20408;-79
2022/12/29 13:05:50;;;;;;;22.27;20.70;;;;;;;;;;5097092;28;20468;-79
2022/12/29 13:08:28;;;;;;;21.30;20.03;;;;;;;;;;5096935;28;20962;-79
2022/12/29 13:10:58;;;;;;;22.03;20.53;;;;;;;;;;5096897;28;20520;-78
2022/12/29 13:13:33;;;;;;;21.03;19.93;;;;;;;;;;5096385;28;20403;-79
2022/12/29 13:16:06;;;;;;;20.80;19.53;;;;;;;;;;5097090;28;20513;-78
2022/12/29 13:18:36;;;;;;;21.80;20.00;;;;;;;;;;5096615;28;20401;-79
2022/12/29 13:21:08;;;;;;;21.83;20.63;;;;;;;;;;5096629;28;20438;-79
2022/12/29 13:23:39;;;;;;;21.60;20.47;;;;;;;;;;5095860;28;20410;-78
2022/12/29 13:26:10;;;;;;;23.27;21.57;;;;;;;;;;5096720;28;20488;-79
2022/12/29 13:28:43;;;;;;;21.27;20.07;;;;;;;;;;5096428;28;20469;-78
2022/12/29 13:31:16;;;;;;;21.03;19.83;;;;;;;;;;5096696;28;20463;-79
2022/12/29 13:33:48;;;;;;;20.90;19.80;;;;;;;;;;5096316;28;20491;-79
2022/12/29 13:36:23;;;;;;;21.87;20.67;;;;;;;;;;5096356;28;20464;-78
2022/12/29 13:38:52;;;;;;;23.10;21.30;;;;;;;;;;5096738;28;20867;-80
2022/12/29 13:41:22;;;;;;;24.83;22.67;;;;;;;;;;5096882;28;20865;-80
2022/12/29 13:43:50;;;;;;;22.27;20.97;;;;;;;;;;5096723;28;20834;-79
2022/12/29 13:46:20;;;;;;;23.67;22.00;;;;;;;;;;5096648;28;20518;-79
2022/12/29 13:48:50;;;;;;;22.17;20.87;;;;;;;;;;5096632;28;20480;-79
2022/12/29 13:51:19;;;;;;;21.90;20.40;;;;;;;;;;5097140;28;20408;-80
2022/12/29 13:54:00;;;;;;;24.10;22.50;;;;;;;;;;5096223;28;20431;-81
2022/12/29 13:56:32;;;;;;;21.87;20.57;;;;;;;;;;5096799;28;20456;-79
2022/12/29 13:59:02;;;;;;;21.37;20.07;;;;;;;;;;5096616;28;20495;-80
2022/12/29 14:01:32;;;;;;;22.77;21.37;;;;;;;;;;5096700;28;20478;-80
2022/12/29 14:04:00;;;;;;;23.43;21.63;;;;;;;;;;5096327;28;20433;-79
2022/12/29 14:06:29;;;;;;;21.00;19.60;;;;;;;;;;5096952;28;20459;-81
2022/12/29 14:08:58;;;;;;;21.40;20.10;;;;;;;;;;5097725;28;20456;-82
2022/12/29 14:11:30;;;;;;;22.37;21.07;;;;;;;;;;5097693;28;21105;-81
2022/12/29 14:13:57;;;;;;;21.53;20.30;;;;;;;;;;5096863;28;20415;-79
2022/12/29 14:16:27;;;;;;;21.37;20.00;;;;;;;;;;5096905;28;20428;-79
2022/12/29 14:18:54;;;;;;;20.73;19.53;;;;;;;;;;5096612;28;20412;-80
2022/12/29 14:21:23;;;;;;;21.90;20.70;;;;;;;;;;5097229;28;20547;-80
2022/12/29 14:23:53;;;;;;;23.10;21.23;;;;;;;;;;5096251;28;20795;-79
2022/12/29 14:26:35;;;;;;;21.80;20.30;;;;;;;;;;5099438;28;20468;-81
2022/12/29 14:29:17;;;;;;;21.50;20.30;;;;;;;;;;5100450;28;20443;-81
2022/12/29 14:31:44;;;;;;;22.13;20.63;;;;;;;;;;5101293;28;20406;-80
2022/12/29 14:34:27;;;;;;;22.63;21.13;;;;;;;;;;5100408;28;20434;-81
2022/12/29 14:36:55;;;;;;;21.90;20.27;;;;;;;;;;5100337;28;20480;-80
2022/12/29 14:39:41;;;;;;;20.43;19.20;;;;;;;;;;5100933;28;20445;-80
2022/12/29 14:42:14;;;;;;;21.87;20.17;;;;;;;;;;5101452;28;20433;-81
2022/12/29 14:44:48;;;;;;;22.70;21.40;;;;;;;;;;5100039;28;20400;-81
2022/12/29 14:47:19;;;;;;;21.80;20.60;;;;;;;;;;5099528;28;20455;-81
2022/12/29 14:49:47;;;;;;;21.80;20.13;;;;;;;;;;5101049;28;20454;-80
2022/12/29 14:52:16;;;;;;;23.00;21.30;;;;;;;;;;5099768;28;20841;-80
2022/12/29 14:54:51;;;;;;;21.20;19.80;;;;;;;;;;5100028;28;20478;-80
2022/12/29 14:57:29;;;;;;;24.07;22.17;;;;;;;;;;5100887;28;20471;-80
2022/12/29 14:59:59;;;;;;;21.30;19.97;;;;;;;;;;5100116;28;20490;-80
2022/12/29 15:02:27;;;;;;;22.60;20.60;;;;;;;;;;5100000;28;20447;-80
2022/12/29 15:04:56;;;;;;;20.13;18.93;;;;;;;;;;5099474;28;20433;-81